createdAt,value
2018-06-13T00:01:09.625Z,80.93
2018-06-13T00:03:38.963Z,80.03
2018-06-13T00:06:08.823Z,79.71
2018-06-13T00:08:38.180Z,79.17
2018-06-13T00:11:07.865Z,78.96
2018-06-13T00:13:37.168Z,79.11
2018-06-13T00:16:06.545Z,78.98
2018-06-13T00:18:35.852Z,78.08
2018-06-13T00:21:05.194Z,79.26
2018-06-13T00:23:34.503Z,77.94
2018-06-13T00:26:03.815Z,78.69
2018-06-13T00:28:32.878Z,78.83
2018-06-13T00:31:02.175Z,79.01
2018-06-13T00:33:31.493Z,79.56
2018-06-13T00:36:00.792Z,79.18
2018-06-13T00:38:30.103Z,78.83
2018-06-13T00:40:59.415Z,77.91
2018-06-13T00:43:28.488Z,78.14
2018-06-13T00:45:57.775Z,78.11
2018-06-13T00:48:27.100Z,77.81
2018-06-13T00:50:56.396Z,77.90
2018-06-13T00:53:25.692Z,77.32
2018-06-13T00:56:11.864Z,77.72
2018-06-13T00:58:41.183Z,77.53
2018-06-13T01:01:10.464Z,76.64
2018-06-13T01:03:39.778Z,76.07
2018-06-13T01:06:09.768Z,76.83
2018-06-13T01:08:39.073Z,76.51
2018-06-13T01:11:08.402Z,77.00
2018-06-13T01:13:37.696Z,77.64
2018-06-13T01:16:06.987Z,76.85
2018-06-13T01:18:36.284Z,77.79
2018-06-13T01:21:05.600Z,77.75
2018-06-13T01:23:35.025Z,77.58
2018-06-13T01:26:04.110Z,77.29
2018-06-13T01:28:33.214Z,77.34
2018-06-13T01:31:02.569Z,77.54
2018-06-13T01:33:31.937Z,77.30
2018-06-13T01:36:01.293Z,77.34
2018-06-13T01:38:30.675Z,77.57
2018-06-13T01:41:00.035Z,77.52
2018-06-13T01:43:29.393Z,77.27
2018-06-13T01:45:58.760Z,77.42
2018-06-13T01:48:28.132Z,78.35
2018-06-13T01:50:58.554Z,78.54
2018-06-13T01:53:29.552Z,78.13
2018-06-13T01:55:58.936Z,78.51
2018-06-13T01:58:28.296Z,78.88
2018-06-13T02:00:57.639Z,77.99
2018-06-13T02:03:26.996Z,78.43
2018-06-13T02:05:56.349Z,78.35
2018-06-13T02:08:25.712Z,78.62
2018-06-13T02:10:55.072Z,79.09
2018-06-13T02:13:24.432Z,79.81
2018-06-13T02:15:53.798Z,79.35
2018-06-13T02:18:23.169Z,79.46
2018-06-13T02:20:52.517Z,79.87
2018-06-13T02:23:21.888Z,79.96
2018-06-13T02:25:51.245Z,79.64
2018-06-13T02:28:20.603Z,78.82
2018-06-13T02:30:49.977Z,79.79
2018-06-13T02:33:19.352Z,79.31
2018-06-13T02:35:48.701Z,79.88
2018-06-13T02:38:17.807Z,81.16
2018-06-13T02:40:46.914Z,79.47
2018-06-13T02:43:16.266Z,79.80
2018-06-13T02:45:45.622Z,79.04
2018-06-13T02:48:14.994Z,79.41
2018-06-13T02:50:44.376Z,79.65
2018-06-13T02:53:13.724Z,79.26
2018-06-13T02:55:43.087Z,78.64
2018-06-13T02:58:12.435Z,79.56
2018-06-13T03:00:41.829Z,79.20
2018-06-13T03:03:11.167Z,78.98
2018-06-13T03:05:40.557Z,79.28
2018-06-13T03:08:09.897Z,79.31
2018-06-13T03:10:39.260Z,78.98
2018-06-13T03:13:08.612Z,79.28
2018-06-13T03:15:37.740Z,79.44
2018-06-13T03:18:07.137Z,79.28
2018-06-13T03:20:36.488Z,78.70
2018-06-13T03:23:11.238Z,79.37
2018-06-13T03:25:40.601Z,78.19
2018-06-13T03:28:09.951Z,78.46
2018-06-13T03:30:39.056Z,79.06
2018-06-13T03:33:08.417Z,79.08
2018-06-13T03:35:37.784Z,77.85
2018-06-13T03:38:07.119Z,76.79
2018-06-13T03:40:36.481Z,77.66
2018-06-13T03:43:05.857Z,77.72
2018-06-13T03:45:35.221Z,76.95
2018-06-13T03:48:04.745Z,77.20
2018-06-13T03:50:33.857Z,78.54
2018-06-13T03:53:03.209Z,77.62
2018-06-13T03:55:32.568Z,76.41
2018-06-13T03:58:01.954Z,77.21
2018-06-13T04:00:31.292Z,76.83
2018-06-13T04:03:00.645Z,76.42
2018-06-13T04:05:29.984Z,76.74
2018-06-13T04:07:59.342Z,76.69
2018-06-13T04:10:28.685Z,76.88
2018-06-13T04:12:58.052Z,76.69
2018-06-13T04:15:27.120Z,77.14
2018-06-13T04:17:56.429Z,76.90
2018-06-13T04:20:25.793Z,76.98
2018-06-13T04:22:55.088Z,77.27
2018-06-13T04:25:24.384Z,77.28
2018-06-13T04:27:53.693Z,76.83
2018-06-13T04:30:22.988Z,76.65
2018-06-13T04:32:52.290Z,76.80
2018-06-13T04:35:21.611Z,77.08
2018-06-13T04:37:50.913Z,76.84
2018-06-13T04:40:20.212Z,77.35
2018-06-13T04:42:49.517Z,78.23
2018-06-13T04:45:18.833Z,78.89
2018-06-13T04:47:48.141Z,79.18
2018-06-13T04:50:17.446Z,78.09
2018-06-13T04:52:46.532Z,79.51
2018-06-13T04:55:15.841Z,79.81
2018-06-13T04:57:44.919Z,79.60
2018-06-13T05:00:14.211Z,78.99
2018-06-13T05:02:43.549Z,79.57
2018-06-13T05:05:12.829Z,79.46
2018-06-13T05:07:42.150Z,79.95
2018-06-13T05:10:11.460Z,79.60
2018-06-13T05:12:40.783Z,93.09
2018-06-13T05:15:10.189Z,79.46
2018-06-13T05:17:39.553Z,78.52
2018-06-13T05:20:09.051Z,78.79
2018-06-13T05:22:38.152Z,79.21
2018-06-13T05:25:07.522Z,78.48
2018-06-13T05:27:36.876Z,79.28
2018-06-13T05:30:06.305Z,77.49
2018-06-13T05:32:35.644Z,77.69
2018-06-13T05:35:05.005Z,77.28
2018-06-13T05:37:34.356Z,77.41
2018-06-13T05:40:03.748Z,78.22
2018-06-13T05:42:33.100Z,77.49
2018-06-13T05:45:02.453Z,76.96
2018-06-13T05:47:31.544Z,76.67
2018-06-13T05:50:00.644Z,77.44
2018-06-13T05:52:29.752Z,77.41
2018-06-13T05:54:59.152Z,76.68
2018-06-13T05:57:28.494Z,76.53
2018-06-13T05:59:57.865Z,77.15
2018-06-13T06:02:27.233Z,76.43
2018-06-13T06:04:56.605Z,75.95
2018-06-13T06:07:25.968Z,77.08
2018-06-13T06:09:55.341Z,77.05
2018-06-13T06:12:24.439Z,76.11
2018-06-13T06:14:53.774Z,75.18
2018-06-13T06:17:23.093Z,74.83
2018-06-13T06:19:52.403Z,74.90
2018-06-13T06:22:21.712Z,74.95
2018-06-13T06:24:51.021Z,74.11
2018-06-13T06:27:20.316Z,74.51
2018-06-13T06:29:49.628Z,73.32
2018-06-13T06:32:18.932Z,73.53
2018-06-13T06:34:48.227Z,72.53
2018-06-13T06:37:17.528Z,72.42
2018-06-13T06:39:46.832Z,72.57
2018-06-13T06:42:16.144Z,71.52
2018-06-13T06:44:45.436Z,70.87
2018-06-13T06:47:14.491Z,72.02
2018-06-13T06:49:44.492Z,71.22
2018-06-13T06:52:13.736Z,71.34
2018-06-13T06:54:43.080Z,72.00
2018-06-13T06:57:12.381Z,70.31
2018-06-13T06:59:41.696Z,71.72
2018-06-13T07:02:11.001Z,70.85
2018-06-13T07:04:40.300Z,69.96
2018-06-13T07:07:09.611Z,68.27
2018-06-13T07:09:38.922Z,68.61
2018-06-13T07:12:09.288Z,67.72
2018-06-13T07:14:38.601Z,68.09
2018-06-13T07:17:07.975Z,68.76
2018-06-13T07:19:37.046Z,68.86
2018-06-13T07:22:06.362Z,67.78
2018-06-13T07:24:35.710Z,66.91
2018-06-13T07:27:05.160Z,68.60
2018-06-13T07:29:34.460Z,66.96
2018-06-13T07:32:03.753Z,68.34
2018-06-13T07:34:33.045Z,68.27
2018-06-13T07:37:02.357Z,67.49
2018-06-13T07:39:31.674Z,67.01
2018-06-13T07:42:00.732Z,67.67
2018-06-13T07:44:30.044Z,66.87
2018-06-13T07:46:59.369Z,67.98
2018-06-13T07:49:28.423Z,67.49
2018-06-13T07:51:57.739Z,67.50
2018-06-13T07:54:27.036Z,68.23
2018-06-13T07:56:56.353Z,68.88
2018-06-13T07:59:25.641Z,68.76
2018-06-13T08:01:54.952Z,67.91
2018-06-13T08:04:24.269Z,66.79
2018-06-13T08:06:53.324Z,67.00
2018-06-13T08:09:22.633Z,67.88
2018-06-13T08:11:51.953Z,65.88
2018-06-13T08:14:21.317Z,67.58
2018-06-13T08:16:50.683Z,68.09
2018-06-13T08:19:20.048Z,67.92
2018-06-13T08:21:49.411Z,67.89
2018-06-13T08:24:18.768Z,66.79
2018-06-13T08:26:56.956Z,66.72
2018-06-13T08:29:26.308Z,66.09
2018-06-13T08:31:55.676Z,65.20
2018-06-13T08:34:24.796Z,66.03
2018-06-13T08:36:54.168Z,65.67
2018-06-13T08:39:23.255Z,66.91
2018-06-13T08:41:52.626Z,65.05
2018-06-13T08:44:21.992Z,64.70
2018-06-13T08:46:51.348Z,64.83
2018-06-13T08:49:20.711Z,63.49
2018-06-13T08:51:50.068Z,64.35
2018-06-13T08:54:19.180Z,64.45
2018-06-13T08:56:48.529Z,63.30
2018-06-13T08:59:17.879Z,64.58
2018-06-13T09:01:47.249Z,65.10
2018-06-13T09:04:16.604Z,63.92
2018-06-13T09:06:45.977Z,62.57
2018-06-13T09:09:15.344Z,63.89
2018-06-13T09:11:44.715Z,62.62
2018-06-13T09:14:14.083Z,62.34
2018-06-13T09:16:43.183Z,63.04
2018-06-13T09:19:12.563Z,62.72
2018-06-13T09:21:41.925Z,62.32
2018-06-13T09:24:11.289Z,63.75
2018-06-13T09:26:40.665Z,63.77
2018-06-13T09:29:10.056Z,64.02
2018-06-13T09:31:39.409Z,61.95
2018-06-13T09:34:08.919Z,62.45
2018-06-13T09:36:38.281Z,63.73
2018-06-13T09:39:08.573Z,63.91
2018-06-13T09:41:42.974Z,62.25
2018-06-13T09:44:12.337Z,64.65
2018-06-13T09:46:48.916Z,64.88
2018-06-13T09:49:10.797Z,64.39
2018-06-13T09:51:40.156Z,63.58
2018-06-13T09:54:09.341Z,64.56
2018-06-13T09:56:38.692Z,63.37
2018-06-13T09:59:15.218Z,64.00
2018-06-13T10:01:49.215Z,61.42
2018-06-13T10:04:18.584Z,61.83
2018-06-13T10:06:47.928Z,62.99
2018-06-13T10:09:17.308Z,61.78
2018-06-13T10:11:46.407Z,61.78
2018-06-13T10:14:15.469Z,62.89
2018-06-13T10:16:44.793Z,62.26
2018-06-13T10:19:13.851Z,63.33
2018-06-13T10:21:43.145Z,62.06
2018-06-13T10:24:12.446Z,62.37
2018-06-13T10:26:41.783Z,63.33
2018-06-13T10:29:11.042Z,62.93
2018-06-13T10:31:40.346Z,62.88
2018-06-13T10:34:09.649Z,63.95
2018-06-13T10:36:38.948Z,64.14
2018-06-13T10:39:09.118Z,64.10
2018-06-13T10:41:38.433Z,63.32
2018-06-13T10:44:08.984Z,62.22
2018-06-13T10:46:38.282Z,64.19
2018-06-13T10:49:07.658Z,62.76
2018-06-13T10:51:36.944Z,64.22
2018-06-13T10:54:05.995Z,64.94
2018-06-13T10:56:35.301Z,63.37
2018-06-13T10:59:04.916Z,61.78
2018-06-13T11:01:34.226Z,61.75
2018-06-13T11:04:03.525Z,62.83
2018-06-13T11:06:32.820Z,62.30
2018-06-13T11:09:02.137Z,62.60
2018-06-13T11:11:31.196Z,61.65
2018-06-13T11:14:00.501Z,60.77
2018-06-13T11:16:29.811Z,61.99
2018-06-13T11:18:59.104Z,62.08
2018-06-13T11:21:28.401Z,64.63
2018-06-13T11:23:57.692Z,62.78
2018-06-13T11:26:26.993Z,63.11
2018-06-13T11:28:56.279Z,62.45
2018-06-13T11:31:25.627Z,63.37
2018-06-13T11:33:54.880Z,62.17
2018-06-13T11:36:24.201Z,64.41
2018-06-13T11:38:53.492Z,63.36
2018-06-13T11:41:22.813Z,63.64
2018-06-13T11:43:52.288Z,62.31
2018-06-13T11:46:21.593Z,63.53
2018-06-13T11:48:50.883Z,63.23
2018-06-13T11:51:20.188Z,63.24
2018-06-13T11:53:49.477Z,62.82
2018-06-13T11:56:18.792Z,62.40
2018-06-13T11:58:48.081Z,58.27
2018-06-13T12:01:17.384Z,58.60
2018-06-13T12:03:46.741Z,59.33
2018-06-13T12:06:16.114Z,59.24
2018-06-13T12:08:45.473Z,61.10
2018-06-13T12:11:14.897Z,58.06
2018-06-13T12:13:44.258Z,57.42
2018-06-13T12:16:13.611Z,58.85
2018-06-13T12:18:43.060Z,57.91
2018-06-13T12:21:12.417Z,57.53
2018-06-13T12:23:41.777Z,57.55
2018-06-13T12:26:11.173Z,58.64
2018-06-13T12:28:40.566Z,58.47
2018-06-13T12:31:09.893Z,58.52
2018-06-13T12:33:39.252Z,58.06
2018-06-13T12:36:09.075Z,59.87
2018-06-13T12:38:38.430Z,60.36
2018-06-13T12:41:07.775Z,61.97
2018-06-13T12:43:37.140Z,60.02
2018-06-13T12:46:06.548Z,59.47
2018-06-13T12:48:35.916Z,57.77
2018-06-13T12:51:05.296Z,58.40
2018-06-13T12:53:34.681Z,57.89
2018-06-13T12:56:04.144Z,58.78
2018-06-13T12:58:33.508Z,58.35
2018-06-13T13:01:02.864Z,57.25
2018-06-13T13:03:32.233Z,58.36
2018-06-13T13:06:01.589Z,57.68
2018-06-13T13:08:30.930Z,59.17
2018-06-13T13:11:00.306Z,60.22
2018-06-13T13:13:29.352Z,60.32
2018-06-13T13:15:58.654Z,62.02
2018-06-13T13:18:27.956Z,61.53
2018-06-13T13:20:57.244Z,61.61
2018-06-13T13:23:26.553Z,61.46
2018-06-13T13:25:55.859Z,61.09
2018-06-13T13:28:25.149Z,62.73
2018-06-13T13:30:54.442Z,63.04
2018-06-13T13:33:23.764Z,63.45
2018-06-13T13:35:53.060Z,63.00
2018-06-13T13:38:22.369Z,63.00
2018-06-13T13:40:51.423Z,63.14
2018-06-13T13:43:20.732Z,61.34
2018-06-13T13:45:50.091Z,62.11
2018-06-13T13:48:19.337Z,62.36
2018-06-13T13:50:48.628Z,63.00
2018-06-13T13:53:18.089Z,62.24
2018-06-13T13:55:47.396Z,59.81
2018-06-13T13:58:16.713Z,59.55
2018-06-13T14:00:46.025Z,60.50
2018-06-13T14:03:15.344Z,60.93
2018-06-13T14:05:44.664Z,60.48
2018-06-13T14:08:13.964Z,60.46
2018-06-13T14:10:43.280Z,60.84
2018-06-13T14:13:12.372Z,61.11
2018-06-13T14:15:41.440Z,61.21
2018-06-13T14:18:10.750Z,61.35
2018-06-13T14:20:40.068Z,61.54
2018-06-13T14:23:09.141Z,62.67
2018-06-13T14:25:38.451Z,61.88
2018-06-13T14:28:08.553Z,62.66
2018-06-13T14:30:37.877Z,61.28
2018-06-13T14:33:07.200Z,61.74
2018-06-13T14:35:36.525Z,62.83
2018-06-13T14:38:05.861Z,62.57
2018-06-13T14:40:35.177Z,60.58
2018-06-13T14:43:04.292Z,60.12
2018-06-13T14:45:33.612Z,60.26
2018-06-13T14:48:02.975Z,58.79
2018-06-13T14:50:32.071Z,59.21
2018-06-13T14:53:01.368Z,54.84
2018-06-13T14:55:34.616Z,54.46
2018-06-13T14:58:03.971Z,54.55
2018-06-13T15:00:33.304Z,54.66
2018-06-13T15:03:02.627Z,55.16
2018-06-13T15:05:31.929Z,55.85
2018-06-13T15:08:01.302Z,56.14
2018-06-13T15:10:30.528Z,56.38
2018-06-13T15:12:59.885Z,57.22
2018-06-13T15:15:29.178Z,58.74
2018-06-13T15:17:58.484Z,60.33
2018-06-13T15:20:27.797Z,59.76
2018-06-13T15:22:57.095Z,60.37
2018-06-13T15:25:26.433Z,59.96
2018-06-13T15:27:55.747Z,60.00
2018-06-13T15:30:25.119Z,60.43
2018-06-13T15:32:54.432Z,60.26
2018-06-13T15:35:23.751Z,59.87
2018-06-13T15:37:53.055Z,60.73
2018-06-13T15:40:22.550Z,61.01
2018-06-13T15:42:51.848Z,60.36
2018-06-13T15:45:21.173Z,60.70
2018-06-13T15:47:51.313Z,61.36
2018-06-13T15:50:20.673Z,60.28
2018-06-13T15:52:49.951Z,60.84
2018-06-13T15:55:19.282Z,59.83
2018-06-13T15:57:48.581Z,59.52
2018-06-13T16:00:17.886Z,58.44
2018-06-13T16:02:46.964Z,58.80
2018-06-13T16:05:16.257Z,58.85
2018-06-13T16:07:45.580Z,58.97
2018-06-13T16:10:14.660Z,59.24
2018-06-13T16:12:43.995Z,59.33
2018-06-13T16:15:13.321Z,58.56
2018-06-13T16:17:42.639Z,60.30
2018-06-13T16:20:11.931Z,60.43
2018-06-13T16:22:41.264Z,60.32
2018-06-13T16:25:10.564Z,59.57
2018-06-13T16:27:39.876Z,61.12
2018-06-13T16:30:09.184Z,61.58
2018-06-13T16:32:38.488Z,59.53
2018-06-13T16:35:07.798Z,0.00
2018-06-13T16:37:37.124Z,59.23
2018-06-13T16:40:06.481Z,60.62
2018-06-13T16:42:35.565Z,58.60
2018-06-13T16:45:05.021Z,58.29
2018-06-13T16:47:34.336Z,59.96
2018-06-13T16:50:19.533Z,59.93
2018-06-13T16:53:06.467Z,59.83
2018-06-13T16:55:35.549Z,59.14
2018-06-13T16:58:04.893Z,59.49
2018-06-13T17:00:34.206Z,58.72
2018-06-13T17:03:03.529Z,59.55
2018-06-13T17:05:32.843Z,60.34
2018-06-13T17:08:02.153Z,60.17
2018-06-13T17:10:31.449Z,61.01
2018-06-13T17:13:00.757Z,61.54
2018-06-13T17:15:30.190Z,60.33
2018-06-13T17:17:59.508Z,59.80
2018-06-13T17:20:28.868Z,59.78
2018-06-13T17:22:57.989Z,60.35
2018-06-13T17:25:27.348Z,59.41
2018-06-13T17:27:56.721Z,60.79
2018-06-13T17:30:26.060Z,60.55
2018-06-13T17:32:55.177Z,60.75
2018-06-13T17:35:24.532Z,60.27
2018-06-13T17:37:54.005Z,60.86
2018-06-13T17:40:23.385Z,61.69
2018-06-13T17:42:52.809Z,61.58
2018-06-13T17:45:22.183Z,60.94
2018-06-13T17:47:51.554Z,61.95
2018-06-13T17:50:20.913Z,61.55
2018-06-13T17:52:50.296Z,62.10
2018-06-13T17:55:19.681Z,62.41
2018-06-13T17:57:48.802Z,63.41
2018-06-13T18:00:18.254Z,62.28
2018-06-13T18:02:47.641Z,62.65
2018-06-13T18:05:17.026Z,63.40
2018-06-13T18:07:46.397Z,64.47
2018-06-13T18:10:15.585Z,64.71
2018-06-13T18:12:44.964Z,64.98
2018-06-13T18:15:14.294Z,63.39
2018-06-13T18:17:43.631Z,64.19
2018-06-13T18:20:12.945Z,64.62
2018-06-13T18:22:42.263Z,64.72
2018-06-13T18:25:11.583Z,65.41
2018-06-13T18:27:40.660Z,65.85
2018-06-13T18:30:09.981Z,64.95
2018-06-13T18:32:39.064Z,65.71
2018-06-13T18:35:08.369Z,66.48
2018-06-13T18:37:37.427Z,65.68
2018-06-13T18:40:06.731Z,66.27
2018-06-13T18:42:36.027Z,66.46
2018-06-13T18:45:05.348Z,66.28
2018-06-13T18:47:34.869Z,65.96
2018-06-13T18:50:04.177Z,65.49
2018-06-13T18:52:33.477Z,66.37
2018-06-13T18:55:02.707Z,65.81
2018-06-13T18:57:32.071Z,65.95
2018-06-13T19:00:01.331Z,66.13
2018-06-13T19:02:30.636Z,65.06
2018-06-13T19:04:59.953Z,65.72
2018-06-13T19:07:29.277Z,66.00
2018-06-13T19:09:58.598Z,67.23
2018-06-13T19:12:28.084Z,66.80
2018-06-13T19:14:57.426Z,66.92
2018-06-13T19:17:26.724Z,66.24
2018-06-13T19:19:56.035Z,65.83
2018-06-13T19:22:25.320Z,66.54
2018-06-13T19:24:54.640Z,66.82
2018-06-13T19:27:23.930Z,66.45
2018-06-13T19:29:53.239Z,66.21
2018-06-13T19:32:22.546Z,66.76
2018-06-13T19:34:51.863Z,66.29
2018-06-13T19:37:20.928Z,0.00
2018-06-13T19:39:50.243Z,67.20
2018-06-13T19:42:19.540Z,66.37
2018-06-13T19:44:48.868Z,66.92
2018-06-13T19:47:23.278Z,66.69
2018-06-13T19:49:52.580Z,66.72
2018-06-13T19:52:25.979Z,67.48
2018-06-13T19:55:00.455Z,67.86
2018-06-13T19:57:29.765Z,67.90
2018-06-13T19:59:59.070Z,67.21
2018-06-13T20:02:32.444Z,68.20
2018-06-13T20:05:07.041Z,68.21
2018-06-13T20:07:36.359Z,67.92
2018-06-13T20:10:05.806Z,68.77
2018-06-13T20:12:44.206Z,69.42
2018-06-13T20:15:18.813Z,69.20
2018-06-13T20:17:53.368Z,68.49
2018-06-13T20:20:22.720Z,68.94
2018-06-13T20:22:52.089Z,68.90
2018-06-13T20:25:26.599Z,69.48
2018-06-13T20:28:01.357Z,68.80
2018-06-13T20:30:36.074Z,67.85
2018-06-13T20:33:05.440Z,68.88
2018-06-13T20:35:34.818Z,68.73
2018-06-13T20:38:04.201Z,71.60
2018-06-13T20:40:33.574Z,68.19
2018-06-13T20:43:02.688Z,68.75
2018-06-13T20:45:32.215Z,70.12
2018-06-13T20:48:01.594Z,70.05
2018-06-13T20:50:30.982Z,70.35
2018-06-13T20:53:00.353Z,70.84
2018-06-13T20:55:29.708Z,69.71
2018-06-13T20:57:59.100Z,69.80
2018-06-13T21:00:28.472Z,69.95
2018-06-13T21:02:57.835Z,69.82
2018-06-13T21:05:27.189Z,70.61
2018-06-13T21:07:56.320Z,70.07
2018-06-13T21:10:25.676Z,69.92
2018-06-13T21:12:55.033Z,70.64
2018-06-13T21:15:24.480Z,70.86
2018-06-13T21:17:53.640Z,71.51
2018-06-13T21:20:23.049Z,71.66
2018-06-13T21:22:52.384Z,71.36
2018-06-13T21:25:21.493Z,70.96
2018-06-13T21:27:50.856Z,71.01
2018-06-13T21:30:20.218Z,69.48
2018-06-13T21:32:49.612Z,70.19
2018-06-13T21:35:19.024Z,70.81
2018-06-13T21:37:48.366Z,71.19
2018-06-13T21:40:17.817Z,71.24
2018-06-13T21:42:47.141Z,70.22
2018-06-13T21:45:16.501Z,70.29
2018-06-13T21:47:45.868Z,69.32
2018-06-13T21:50:15.229Z,68.95
2018-06-13T21:52:44.633Z,70.33
2018-06-13T21:55:13.990Z,71.75
2018-06-13T21:57:43.098Z,71.76
2018-06-13T22:00:13.000Z,71.77
2018-06-13T22:02:42.120Z,71.73
2018-06-13T22:05:11.507Z,71.57
2018-06-13T22:07:40.892Z,70.86
2018-06-13T22:10:10.265Z,71.12
2018-06-13T22:12:39.652Z,70.20
2018-06-13T22:15:15.165Z,70.61
2018-06-13T22:17:44.552Z,70.60
2018-06-13T22:20:13.672Z,71.21
2018-06-13T22:22:43.057Z,71.37
2018-06-13T22:25:12.452Z,71.32
2018-06-13T22:27:41.799Z,71.56
2018-06-13T22:30:11.355Z,71.71
2018-06-13T22:32:40.715Z,72.61
2018-06-13T22:35:10.095Z,72.64
2018-06-13T22:37:39.468Z,72.49
2018-06-13T22:40:08.856Z,72.26
2018-06-13T22:42:38.237Z,71.83
2018-06-13T22:45:07.610Z,71.92
2018-06-13T22:47:36.978Z,72.44
2018-06-13T22:50:06.371Z,72.27
2018-06-13T22:52:35.485Z,72.26
2018-06-13T22:55:04.885Z,72.63
2018-06-13T22:57:34.269Z,74.00
2018-06-13T23:00:03.413Z,73.43
2018-06-13T23:02:32.764Z,72.71
2018-06-13T23:05:02.144Z,73.52
2018-06-13T23:07:31.507Z,72.41
2018-06-13T23:10:00.892Z,72.87
2018-06-13T23:12:30.250Z,72.02
2018-06-13T23:14:59.573Z,72.86
2018-06-13T23:17:28.645Z,72.46
2018-06-13T23:19:57.945Z,73.11
2018-06-13T23:22:27.282Z,72.69
2018-06-13T23:24:56.604Z,73.63
2018-06-13T23:27:25.939Z,74.05
2018-06-13T23:29:55.252Z,73.49
2018-06-13T23:32:24.567Z,73.04
2018-06-13T23:34:53.648Z,73.56
2018-06-13T23:37:22.964Z,73.12
2018-06-13T23:39:52.049Z,73.20
2018-06-13T23:42:21.367Z,73.80
2018-06-13T23:44:50.710Z,73.54
2018-06-13T23:47:20.008Z,73.21
2018-06-13T23:49:49.333Z,74.39
2018-06-13T23:52:18.673Z,74.55
2018-06-13T23:54:47.975Z,74.62
2018-06-13T23:57:17.317Z,74.13
2018-06-13T23:59:46.641Z,73.99
